»·PEaware :: N614FT KSNA-KCRQ

N614FT :: KSNA-KCRQ

FLIGHT INFORMATION

Flight Status: Arrived
Operator: Privately registered:
United States
More flights under this callsign
Pilot: Carlos A. (16805)
Aircraft: PIPER PA-31/31P NAVAJO CHIEFTAIN
(PA31)
More flights by this aircraft type
Origin: KSNA John Wayne-Orange Co
United States
Destination: KCRQ McClellan-Palomar
United States
More flights between these airports :: More routes between these airports
Route: V23 OCN
File this flight plan on PilotEdge
Remarks: CSTP30
Altitude:
(Current/Filed)
5,000ft
Speed:
(Current/Filed)
180kts
Departed: 12-Jan-23 08:23 PM
Arrived: 12-Jan-23 09:09 PM
Distance/Time
Traveled:
0nm/0:46
Distance/Time
To Go:
Arrived

Flight Plot

Page will automatically refresh every two minutes.


Map Options




Map Legend


Flown Route
Filed Route
Departure Airport
Arrival Airport
Navaid (VOR, NDB)
Fix

Horizontal Profiles

Position Reports

Time Latitude Longitude Heading Altitude Ground
Speed
12-Jan-23 19:32 33.679767 -117.861834 116 60ft 0kts
12-Jan-23 19:33 33.679767 -117.861834 116 60ft 0kts
12-Jan-23 19:34 33.679767 -117.861834 116 60ft 0kts
12-Jan-23 19:35 33.679767 -117.861834 116 60ft 0kts
12-Jan-23 19:36 33.679767 -117.861834 116 60ft 0kts
12-Jan-23 19:37 33.679767 -117.861834 116 60ft 0kts
12-Jan-23 19:38 33.679767 -117.861834 116 60ft 0kts
12-Jan-23 19:39 33.679767 -117.861834 116 60ft 0kts
12-Jan-23 19:40 33.679767 -117.861834 116 60ft 0kts
12-Jan-23 19:41 33.679767 -117.861834 116 60ft 0kts
12-Jan-23 19:42 33.679767 -117.861834 116 60ft 0kts
12-Jan-23 19:43 33.679767 -117.861834 116 60ft 0kts
12-Jan-23 19:44 33.679767 -117.861834 116 60ft 0kts
12-Jan-23 19:45 33.679767 -117.861834 116 60ft 0kts
12-Jan-23 19:46 33.679767 -117.861834 116 60ft 0kts
12-Jan-23 19:47 33.679767 -117.861834 116 60ft 0kts
12-Jan-23 19:48 33.679766 -117.861834 116 60ft 0kts
12-Jan-23 19:49 33.679766 -117.861832 116 60ft 0kts
12-Jan-23 19:50 33.679765 -117.861831 116 60ft 0kts
12-Jan-23 19:51 33.679765 -117.861830 116 60ft 0kts
12-Jan-23 19:52 33.679764 -117.861829 116 60ft 0kts
12-Jan-23 19:53 33.679764 -117.861827 116 60ft 0kts
12-Jan-23 19:54 33.679763 -117.861826 116 60ft 0kts
12-Jan-23 19:55 33.679763 -117.861825 116 60ft 0kts
12-Jan-23 19:56 33.679762 -117.861824 116 60ft 0kts
12-Jan-23 19:57 33.679762 -117.861823 116 60ft 0kts
12-Jan-23 19:58 33.679761 -117.861821 116 60ft 0kts
12-Jan-23 19:59 33.679761 -117.861820 116 60ft 0kts
12-Jan-23 20:00 33.679760 -117.861819 116 60ft 0kts
12-Jan-23 20:01 33.679760 -117.861818 116 60ft 0kts
12-Jan-23 20:02 33.679759 -117.861816 116 60ft 0kts
12-Jan-23 20:03 33.679759 -117.861815 116 60ft 0kts
12-Jan-23 20:04 33.679759 -117.861815 116 60ft 0kts
12-Jan-23 20:05 33.679758 -117.861814 116 60ft 0kts
12-Jan-23 20:06 33.679758 -117.861813 116 60ft 0kts
12-Jan-23 20:07 33.679735 -117.861776 143 60ft 1kts
12-Jan-23 20:08 33.679652 -117.861902 266 60ft 0kts
12-Jan-23 20:09 33.679652 -117.861915 266 60ft 0kts
12-Jan-23 20:10 33.679651 -117.861928 266 60ft 0kts
12-Jan-23 20:11 33.679651 -117.861931 266 60ft 0kts
12-Jan-23 20:12 33.679651 -117.861932 266 60ft 0kts
12-Jan-23 20:13 33.679651 -117.861934 266 60ft 0kts
12-Jan-23 20:14 33.679651 -117.861935 266 60ft 0kts
12-Jan-23 20:15 33.679651 -117.861937 266 60ft 0kts
12-Jan-23 20:17 33.679651 -117.861938 266 60ft 0kts
12-Jan-23 20:18 33.679632 -117.862225 264 60ft 1kts
12-Jan-23 20:19 33.679519 -117.863357 297 60ft 7kts
12-Jan-23 20:20 33.679699 -117.863768 295 60ft 0kts
12-Jan-23 20:21 33.679699 -117.863769 295 60ft 0kts
12-Jan-23 20:22 33.679803 -117.864034 293 60ft 8kts
12-Jan-23 20:23 33.671172 -117.869798 203 403ft 89kts
12-Jan-23 20:24 33.644638 -117.877579 188 1767ft 97kts
12-Jan-23 20:25 33.615040 -117.882884 185 2974ft 112kts
12-Jan-23 20:26 33.583059 -117.879690 125 4024ft 135kts
12-Jan-23 20:27 33.568197 -117.837864 111 4979ft 157kts
12-Jan-23 20:28 33.547185 -117.782995 127 4880ft 196kts
12-Jan-23 20:29 33.513521 -117.731461 131 5062ft 200kts
12-Jan-23 20:30 33.475507 -117.683018 132 4981ft 200kts
12-Jan-23 20:31 33.438016 -117.634538 134 4960ft 198kts
12-Jan-23 20:32 33.397445 -117.590938 137 4847ft 203kts
12-Jan-23 20:33 33.354981 -117.549542 132 5164ft 199kts
12-Jan-23 20:34 33.315099 -117.502295 133 4920ft 200kts
12-Jan-23 20:35 33.276537 -117.456263 136 4946ft 198kts
12-Jan-23 20:36 33.236816 -117.410976 135 5074ft 197kts
12-Jan-23 20:37 33.223423 -117.354927 90 4964ft 171kts
12-Jan-23 20:38 33.225169 -117.297370 87 5045ft 174kts
12-Jan-23 20:39 33.226215 -117.240143 89 4983ft 170kts
12-Jan-23 20:39 33.223726 -117.193873 93 4974ft 166kts
12-Jan-23 20:41 33.224656 -117.129442 89 4985ft 174kts
12-Jan-23 20:42 33.224878 -117.072596 90 4982ft 170kts
12-Jan-23 20:43 33.226019 -117.017059 115 4787ft 178kts
12-Jan-23 20:44 33.186570 -117.017046 228 4592ft 170kts
12-Jan-23 20:44 33.166244 -117.057229 256 3822ft 173kts
12-Jan-23 20:45 33.154125 -117.110023 260 3297ft 165kts
12-Jan-23 20:47 33.145415 -117.171516 253 2084ft 160kts
12-Jan-23 20:48 33.139569 -117.213816 259 1164ft 113kts
12-Jan-23 20:48 33.133511 -117.242731 256 709ft 108kts
12-Jan-23 20:49 33.128590 -117.277777 256 1376ft 106kts
12-Jan-23 20:50 33.120978 -117.313545 251 2390ft 115kts
12-Jan-23 20:51 33.111746 -117.352163 287 3113ft 136kts
12-Jan-23 20:53 33.147384 -117.378092 339 4193ft 139kts
12-Jan-23 20:53 33.176370 -117.391691 344 5016ft 140kts
12-Jan-23 20:54 33.219362 -117.409423 341 5151ft 178kts
12-Jan-23 20:55 33.268277 -117.417773 32 5121ft 182kts
12-Jan-23 20:56 33.272464 -117.362898 120 4895ft 184kts
12-Jan-23 20:57 33.249198 -117.312421 113 4970ft 173kts
12-Jan-23 20:58 33.229190 -117.261628 103 4885ft 170kts
12-Jan-23 20:59 33.219981 -117.207852 91 4985ft 165kts
12-Jan-23 21:00 33.219459 -117.152604 92 5019ft 167kts
12-Jan-23 21:01 33.216372 -117.096179 95 5070ft 171kts
12-Jan-23 21:02 33.199444 -117.045313 148 4524ft 176kts
12-Jan-23 21:03 33.163453 -117.070473 253 3814ft 181kts
12-Jan-23 21:04 33.153086 -117.123935 259 3069ft 169kts
12-Jan-23 21:05 33.145100 -117.175820 260 2084ft 141kts
12-Jan-23 21:06 33.138022 -117.218363 255 1162ft 124kts
12-Jan-23 21:07 33.131810 -117.257294 256 647ft 120kts
12-Jan-23 21:08 33.126798 -117.288398 259 335ft 13kts
12-Jan-23 21:09 33.126503 -117.287485 167 335ft 0kts
12-Jan-23 21:10 33.126499 -117.287483 168 335ft 0kts
12-Jan-23 21:11 33.126095 -117.287247 109 335ft 5kts
12-Jan-23 21:12 33.126633 -117.283440 110 335ft 7kts
12-Jan-23 21:13 33.125877 -117.283123 166 335ft 0kts
12-Jan-23 21:14 33.125875 -117.283123 166 335ft 0kts
12-Jan-23 21:15 33.125875 -117.283123 166 335ft 0kts
12-Jan-23 21:16 33.125875 -117.283123 166 335ft 0kts
12-Jan-23 21:17 33.125875 -117.283123 166 335ft 0kts
12-Jan-23 21:18 33.125875 -117.283123 166 335ft 0kts
12-Jan-23 21:19 33.125875 -117.283123 166 335ft 0kts
12-Jan-23 21:20 33.675603 -117.871261 22 60ft 0kts

Navigation Log

Ident Type
Flight plan parsing failed, navigation log unavailable